createdAt,value
2023-08-17T00:04:50.475Z,20.35
2023-08-17T00:11:03.129Z,21.65
2023-08-17T00:17:10.873Z,20.38
2023-08-17T00:23:17.061Z,20.72
2023-08-17T00:29:19.311Z,22.08
2023-08-17T00:35:24.778Z,21.95
2023-08-17T00:41:27.251Z,21.14
2023-08-17T00:47:33.771Z,21.95
2023-08-17T00:53:45.001Z,21.99
2023-08-17T01:00:03.149Z,20.79
2023-08-17T01:06:16.330Z,21.11
2023-08-17T01:12:29.853Z,21.86
2023-08-17T01:18:35.386Z,21.46
2023-08-17T01:24:37.890Z,19.26
2023-08-17T01:30:56.442Z,19.42
2023-08-17T01:37:10.933Z,20.54
2023-08-17T01:43:20.018Z,20.88
2023-08-17T01:49:23.964Z,20.66
2023-08-17T01:55:40.400Z,21.04
2023-08-17T02:01:50.011Z,21.21
2023-08-17T02:07:58.289Z,19.85
2023-08-17T02:14:00.969Z,19.64
2023-08-17T02:20:07.390Z,20.00
2023-08-17T02:26:09.950Z,19.64
2023-08-17T02:32:12.420Z,20.63
2023-08-17T02:38:23.981Z,20.35
2023-08-17T02:44:26.466Z,20.58
2023-08-17T02:50:37.989Z,18.81
2023-08-17T02:56:40.471Z,20.28
2023-08-17T03:02:45.032Z,19.22
2023-08-17T03:08:47.414Z,19.46
2023-08-17T03:14:51.198Z,19.80
2023-08-17T03:20:55.190Z,20.13
2023-08-17T03:27:00.023Z,20.10
2023-08-17T03:33:07.766Z,18.73
2023-08-17T03:39:15.986Z,19.01
2023-08-17T03:45:21.386Z,19.98
2023-08-17T03:51:30.197Z,19.84
2023-08-17T03:57:34.112Z,20.22
2023-08-17T04:03:52.473Z,19.72
2023-08-17T04:10:03.998Z,20.11
2023-08-17T04:16:12.003Z,19.78
2023-08-17T04:22:14.369Z,20.00
2023-08-17T04:28:25.947Z,19.54
2023-08-17T04:34:34.690Z,20.76
2023-08-17T04:40:53.205Z,20.27
2023-08-17T04:47:00.703Z,21.00
2023-08-17T04:53:08.955Z,20.81
2023-08-17T04:59:13.408Z,22.06
2023-08-17T05:05:28.018Z,22.52
2023-08-17T05:12:02.844Z,22.63
2023-08-17T05:24:50.473Z,22.89
2023-08-17T05:25:52.706Z,22.60
2023-08-17T05:32:34.396Z,23.80
2023-08-17T05:38:40.332Z,23.43
2023-08-17T05:44:56.960Z,24.13
2023-08-17T05:51:04.953Z,24.00
2023-08-17T05:57:36.004Z,24.15
2023-08-17T06:04:25.724Z,24.84
2023-08-17T06:11:17.838Z,24.90
2023-08-17T06:17:47.993Z,23.48
2023-08-17T06:24:02.356Z,23.47
2023-08-17T06:30:14.799Z,25.62
2023-08-17T06:36:36.518Z,25.60
2023-08-17T06:43:45.754Z,25.12
2023-08-17T06:49:38.246Z,26.07
2023-08-17T06:56:16.472Z,24.22
2023-08-17T07:02:51.861Z,24.04
2023-08-17T07:09:24.522Z,25.49
2023-08-17T07:15:35.292Z,25.98
2023-08-17T07:21:50.473Z,26.23
2023-08-17T07:28:02.973Z,26.38
2023-08-17T07:34:32.540Z,28.28
2023-08-17T07:40:42.375Z,27.70
2023-08-17T07:46:50.206Z,28.27
2023-08-17T07:52:54.201Z,27.00
2023-08-17T07:58:56.518Z,28.04
2023-08-17T08:04:58.988Z,28.54
2023-08-17T08:11:05.744Z,28.45
2023-08-17T08:17:07.910Z,28.67
2023-08-17T08:23:10.347Z,28.34
2023-08-17T08:29:12.837Z,27.11
2023-08-17T08:35:15.304Z,28.59
2023-08-17T08:41:22.798Z,29.08
2023-08-17T08:47:35.047Z,27.86
2023-08-17T08:54:04.879Z,27.41
2023-08-17T09:01:09.004Z,29.66
2023-08-17T09:07:08.770Z,29.55
2023-08-17T09:13:17.031Z,28.54
2023-08-17T09:19:22.885Z,29.73
2023-08-17T09:25:26.560Z,29.80
2023-08-17T09:31:33.098Z,27.16
2023-08-17T09:37:36.499Z,29.17
2023-08-17T09:43:39.016Z,28.71
2023-08-17T09:49:48.474Z,29.96
2023-08-17T09:55:50.941Z,30.11
2023-08-17T10:01:58.155Z,30.88
2023-08-17T10:08:10.143Z,30.78
2023-08-17T10:14:23.482Z,30.36
2023-08-17T10:20:35.541Z,28.92
2023-08-17T10:26:38.498Z,30.26
2023-08-17T10:33:05.777Z,29.22
2023-08-17T10:39:30.027Z,30.88
2023-08-17T10:45:41.258Z,30.36
2023-08-17T10:52:49.111Z,30.97
2023-08-17T10:59:19.612Z,29.00
2023-08-17T11:06:18.133Z,31.02
2023-08-17T11:12:34.738Z,30.71
2023-08-17T11:18:52.541Z,31.34
2023-08-17T11:24:55.760Z,30.83
2023-08-17T11:31:02.308Z,31.38
2023-08-17T11:37:08.798Z,30.73
2023-08-17T11:43:13.601Z,30.03
2023-08-17T11:49:15.716Z,30.89
2023-08-17T11:55:30.543Z,30.58
2023-08-17T12:01:46.117Z,30.46
2023-08-17T12:14:13.841Z,30.49
2023-08-17T12:20:23.365Z,31.40
2023-08-17T12:26:28.891Z,31.66
2023-08-17T12:32:31.386Z,31.35
2023-08-17T12:38:33.787Z,31.18
2023-08-17T12:44:39.486Z,31.02
2023-08-17T12:50:44.261Z,31.30
2023-08-17T12:56:46.758Z,31.10
2023-08-17T13:02:50.616Z,31.40
2023-08-17T13:08:53.131Z,31.35
2023-08-17T13:14:55.621Z,31.27
2023-08-17T13:21:00.096Z,30.63
2023-08-17T13:27:06.949Z,31.36
2023-08-17T13:33:10.842Z,31.47
2023-08-17T13:39:13.506Z,31.71
2023-08-17T13:45:18.995Z,32.16
2023-08-17T13:51:22.465Z,32.20
2023-08-17T13:57:25.937Z,31.98
2023-08-17T14:03:32.301Z,32.24
2023-08-17T14:09:34.984Z,31.59
2023-08-17T14:15:39.429Z,31.23
2023-08-17T14:21:43.977Z,31.51
2023-08-17T14:27:46.424Z,30.71
2023-08-17T14:33:52.334Z,31.26
2023-08-17T14:39:55.401Z,31.35
2023-08-17T14:46:00.941Z,31.76
2023-08-17T14:52:16.383Z,31.38
2023-08-17T14:58:20.870Z,31.28
2023-08-17T15:04:39.866Z,30.19
2023-08-17T15:10:45.098Z,30.97
2023-08-17T15:16:57.445Z,30.20
2023-08-17T15:23:00.906Z,30.46
2023-08-17T15:29:08.332Z,30.54
2023-08-17T15:35:21.043Z,30.88
2023-08-17T15:41:32.360Z,30.61
2023-08-17T15:47:37.977Z,29.75
2023-08-17T15:53:46.612Z,30.15
2023-08-17T15:59:53.259Z,29.88
2023-08-17T16:05:56.365Z,30.39
2023-08-17T16:12:15.044Z,30.11
2023-08-17T16:18:28.393Z,30.41
2023-08-17T16:24:33.863Z,30.43
2023-08-17T16:31:09.970Z,30.03
2023-08-17T16:37:16.621Z,30.45
2023-08-17T16:43:23.616Z,30.08
2023-08-17T16:49:30.764Z,29.04
2023-08-17T16:55:55.067Z,28.81
2023-08-17T17:02:17.042Z,28.37
2023-08-17T17:08:42.786Z,28.49
2023-08-17T17:14:58.123Z,29.88
2023-08-17T17:21:08.224Z,28.47
2023-08-17T17:27:13.163Z,27.29
2023-08-17T17:33:26.056Z,26.56
2023-08-17T17:39:50.129Z,28.76
2023-08-17T17:46:12.740Z,28.44
2023-08-17T17:52:27.509Z,27.05
2023-08-17T17:58:35.520Z,27.82
2023-08-17T18:04:49.200Z,28.66
2023-08-17T18:11:13.886Z,28.53
2023-08-17T18:17:55.311Z,27.23
2023-08-17T18:23:47.993Z,27.82
2023-08-17T18:30:07.867Z,26.65
2023-08-17T18:36:27.323Z,27.27
2023-08-17T18:42:42.110Z,27.17
2023-08-17T18:48:56.178Z,26.08
2023-08-17T18:55:19.692Z,25.97
2023-08-17T19:01:39.615Z,27.01
2023-08-17T19:07:50.017Z,26.94
2023-08-17T19:14:13.297Z,26.10
2023-08-17T19:20:19.723Z,25.36
2023-08-17T19:26:48.708Z,25.52
2023-08-17T19:33:17.724Z,26.06
2023-08-17T19:39:41.585Z,24.24
2023-08-17T19:46:44.716Z,25.00
2023-08-17T19:52:51.938Z,23.82
2023-08-17T19:58:57.140Z,22.11
2023-08-17T20:05:20.412Z,24.60
2023-08-17T20:12:02.318Z,24.51
2023-08-17T20:18:19.793Z,24.48
2023-08-17T20:24:39.276Z,21.42
2023-08-17T20:30:43.807Z,23.38
2023-08-17T20:37:09.019Z,23.98
2023-08-17T20:43:15.923Z,23.14
2023-08-17T20:49:30.262Z,23.02
2023-08-17T20:55:48.052Z,23.00
2023-08-17T21:01:58.516Z,22.77
2023-08-17T21:08:24.330Z,23.07
2023-08-17T21:20:54.116Z,21.62
2023-08-17T21:27:07.660Z,23.02
2023-08-17T21:33:22.697Z,21.40
2023-08-17T21:39:32.633Z,22.60
2023-08-17T21:45:35.144Z,21.77
2023-08-17T21:52:02.591Z,23.01
2023-08-17T21:58:11.284Z,22.00
2023-08-17T22:04:26.697Z,20.61
2023-08-17T22:10:32.235Z,22.32
2023-08-17T22:16:50.678Z,21.73
2023-08-17T22:22:58.736Z,22.43
2023-08-17T22:29:07.465Z,22.72
2023-08-17T22:35:34.173Z,22.84
2023-08-17T22:41:45.623Z,22.29
2023-08-17T22:47:54.160Z,21.80
2023-08-17T22:54:17.110Z,22.07
2023-08-17T23:00:27.212Z,22.54
2023-08-17T23:06:34.551Z,22.30
2023-08-17T23:12:48.633Z,20.58
2023-08-17T23:19:13.777Z,22.02
2023-08-17T23:25:19.397Z,21.63
2023-08-17T23:31:32.765Z,21.30
2023-08-17T23:37:38.498Z,21.68
2023-08-17T23:43:40.913Z,21.87
2023-08-17T23:50:02.819Z,21.91
2023-08-17T23:56:22.773Z,20.96
